Etusivu
METAR-TAF:

METAR-TAF

Lentoasemat :

Rooma-Fiumicino, Italia

Leonardo da Vincin kansainvälinen lentoasema

Leveyspiiri: 41-48N, Pituuspiiri: 012-14E, korkeus merenpinnasta: 2 m

Tämänhetkinen sää

Tämä raportti tehtiin 34 minuuttia sitten, kello 06.50 UTC
Tuuli 14 kn lounaasta
Lämpötila 14°C
Kosteus 72%
Ilmanpaine 1014 hPa
Näkyvyys 10 km tai enemmän
Hajanaisia pilviä 2500 ft:n korkeudessa
Hajonneita pilviä 4000 ft:n korkeudessa

METAR: LIRF 190650Z 22014KT 9999 SCT025 BKN040 14/09 Q1014 NOSIG

Aika: 08:24 (07:24 UTC)

Sääennuste

Tämä raportti tehtiin 2 tuntia ja 24 minuuttia sitten, kello 05.00 UTC
Ennuste voimassa 19. päivästä klo 06 UTC - 20. päivään klo 12 UTC
Tuuli 15 kn lounaasta
Näkyvyys: 8000 m
Muutamia pilviä 2000 ft:n korkeudessa
Hajonneita pilviä 4000 ft:n korkeudessa
Tulossa
19. päivästä klo 18 UTC - 19. päivään klo 20 UTC
Tuuli 8 kn pohjoisesta/koillisesta

TAF: LIRF 190500Z 1906/2012 23015KT 8000 FEW020 BKN040 BECMG 1918/1920 02008KT

Säähavainnot ja -ennusteet yli 4000 lentoasemalta (METAR- ja TAF-raportit).

Käytössä olevat sääasemat on merkitty karttaan keltaisilla ja punaisilla pisteillä.

Aseta hiiri pisteen päälle nähdäksesi sääaseman nimen.

Klikkaa sitten nähdäksesi säähavainnot ja -ennusteet.

Kartan vaihtaminen: klikkaa mustalla rastilla varustettuja vihreitä pisteitä, niin voit zoomata sisään; viivalla varustettua vihreää pistettä, niin voit zoomata ulos tai vihreitä nuolia, niin pääset viereisille kartoille.


METAR-TAF: